Time;durP1;ratioP1;P1;durP2;ratioP2;P2;SDS_P1;SDS_P2;PMS_P1;PMS_P2;Temp;Humidity;BMP_temperature;BMP_pressure;BME280_temperature;BME280_humidity;BME280_pressure;Samples;Min_cycle;Max_cycle;Signal;HPM_P1;HPM_P2
2021/06/06 00:01:40;;;;;;;4.13;3.57;;;;;;;13.92;66.40;101414.16;5015687;28;20177;-68
2021/06/06 00:04:18;;;;;;;4.67;3.20;;;;;;;13.80;67.24;101412.19;4998133;28;20192;-68
2021/06/06 00:06:43;;;;;;;4.57;3.77;;;;;;;13.65;67.95;101419.25;5014978;28;20204;-68
2021/06/06 00:09:14;;;;;;;7.10;3.93;;;;;;;13.90;67.89;101411.56;4997274;28;20268;-69
2021/06/06 00:11:52;;;;;;;4.63;3.73;;;;;;;14.07;66.66;101416.81;5015941;28;20566;-68
2021/06/06 00:14:22;;;;;;;4.57;3.80;;;;;;;14.09;66.85;101408.66;4998543;28;20168;-68
2021/06/06 00:16:52;;;;;;;7.37;3.67;;;;;;;14.16;66.33;101407.38;5015434;28;20665;-69
2021/06/06 00:19:19;;;;;;;4.43;3.80;;;;;;;13.94;67.62;101407.75;4997980;28;20184;-68
2021/06/06 00:21:44;;;;;;;5.40;3.50;;;;;;;13.85;67.48;101404.72;5014582;28;20201;-68
2021/06/06 00:24:11;;;;;;;5.53;3.63;;;;;;;13.79;67.88;101411.31;5014303;28;20594;-68
2021/06/06 00:26:37;;;;;;;6.23;4.20;;;;;;;13.83;68.15;101402.13;5013931;28;20200;-68
2021/06/06 00:29:03;;;;;;;4.17;3.77;;;;;;;13.90;67.54;101403.50;5014243;28;20184;-68
2021/06/06 00:31:28;;;;;;;8.00;4.23;;;;;;;13.88;67.85;101402.72;5014244;28;20204;-68
2021/06/06 00:33:53;;;;;;;7.23;3.93;;;;;;;13.89;67.74;101400.91;4997007;28;20169;-69
2021/06/06 00:36:19;;;;;;;5.00;3.63;;;;;;;13.84;67.93;101403.88;5014221;28;20204;-68
2021/06/06 00:38:45;;;;;;;6.30;4.00;;;;;;;13.93;67.89;101402.47;4996638;28;20181;-68
2021/06/06 00:41:12;;;;;;;7.33;4.23;;;;;;;13.91;68.11;101399.00;4996532;28;20652;-68
2021/06/06 00:43:38;;;;;;;10.63;3.93;;;;;;;13.90;68.37;101400.81;5013905;28;20228;-69
2021/06/06 00:46:04;;;;;;;5.37;3.60;;;;;;;13.68;68.35;101398.50;5013901;28;20220;-68
2021/06/06 00:48:30;;;;;;;8.03;4.23;;;;;;;13.79;68.53;101392.53;4980115;28;20327;-68
2021/06/06 00:50:58;;;;;;;6.23;3.70;;;;;;;13.64;68.10;101401.44;4996590;28;20193;-68
2021/06/06 00:53:32;;;;;;;6.00;3.40;;;;;;;13.21;70.05;101393.13;4996534;28;20169;-68
2021/06/06 00:55:58;;;;;;;5.47;3.80;;;;;;;13.39;69.89;101397.47;4996410;28;20192;-68
2021/06/06 00:58:24;;;;;;;5.17;4.10;;;;;;;13.20;70.76;101391.38;5013722;28;20200;-68
2021/06/06 01:00:51;;;;;;;6.23;3.47;;;;;;;13.07;71.03;101396.53;4996388;28;20232;-68
2021/06/06 01:03:17;;;;;;;7.27;3.40;;;;;;;12.88;70.81;101390.41;5013715;28;20228;-68
2021/06/06 01:05:48;;;;;;;6.50;3.90;;;;;;;12.61;71.97;101382.03;5013786;28;20200;-69
2021/06/06 01:08:16;;;;;;;7.07;3.77;;;;;;;12.55;71.71;101400.22;4996654;28;20171;-68
2021/06/06 01:10:41;;;;;;;8.10;3.93;;;;;;;12.45;72.59;101386.47;4996089;28;20259;-68
2021/06/06 01:13:38;;;;;;;5.57;3.80;;;;;;;12.36;73.55;101390.47;4996023;28;20213;-68
2021/06/06 01:16:24;;;;;;;5.80;3.80;;;;;;;12.28;73.38;101387.34;4996187;28;20207;-68
2021/06/06 01:18:50;;;;;;;7.27;3.70;;;;;;;12.19;73.51;101391.31;4996165;28;20169;-68
2021/06/06 01:21:19;;;;;;;7.63;4.13;;;;;;;12.23;73.28;101384.00;4995993;28;20184;-68
2021/06/06 01:24:01;;;;;;;4.10;3.70;;;;;;;12.19;73.70;101391.31;4995718;28;20727;-68
2021/06/06 01:26:37;;;;;;;4.40;3.40;;;;;;;12.15;74.21;101392.44;5013544;28;20278;-69
2021/06/06 01:29:26;;;;;;;7.40;3.50;;;;;;;12.19;73.77;101391.31;4995972;28;20169;-69
2021/06/06 01:32:02;;;;;;;6.63;3.80;;;;;;;12.29;73.22;101394.44;4996092;28;20196;-68
2021/06/06 01:34:28;;;;;;;5.33;4.10;;;;;;;12.34;74.32;101400.41;4995766;28;20159;-68
2021/06/06 01:37:04;;;;;;;6.17;4.00;;;;;;;12.49;73.97;101388.03;4995409;28;20283;-68
2021/06/06 01:39:41;;;;;;;7.03;4.13;;;;;;;12.45;74.30;101395.34;4995548;28;20164;-68
2021/06/06 01:42:12;;;;;;;6.37;4.37;;;;;;;12.34;75.03;101391.50;4995843;28;20181;-68
2021/06/06 01:44:38;;;;;;;7.53;4.53;;;;;;;12.39;74.18;101384.09;4995339;28;20220;-68
2021/06/06 01:47:10;;;;;;;5.70;4.40;;;;;;;12.47;74.82;101384.56;4996672;28;20244;-68
2021/06/06 01:49:43;;;;;;;5.40;3.83;;;;;;;12.39;75.06;101386.78;4995706;28;20228;-68
2021/06/06 01:52:10;;;;;;;5.30;4.27;;;;;;;12.67;74.97;101387.06;4995887;28;20174;-68
2021/06/06 01:54:37;;;;;;;5.00;4.20;;;;;;;12.69;74.13;101389.69;4995988;28;20268;-68
2021/06/06 01:57:02;;;;;;;6.53;4.30;;;;;;;12.71;73.73;101379.75;4995294;28;20283;-68
2021/06/06 01:59:38;;;;;;;6.80;3.90;;;;;;;12.51;73.82;101381.66;4995335;28;20292;-68
2021/06/06 02:02:04;;;;;;;4.73;3.83;;;;;;;12.37;73.35;101383.31;5012996;28;20180;-68
2021/06/06 02:04:30;;;;;;;5.03;4.10;;;;;;;12.19;74.63;101385.09;4978887;28;20204;-68
2021/06/06 02:07:00;;;;;;;7.53;3.73;;;;;;;12.08;75.35;101396.38;4995497;28;20227;-68
2021/06/06 02:09:29;;;;;;;6.07;3.90;;;;;;;11.98;75.85;101380.84;4979060;28;20557;-68
2021/06/06 02:11:56;;;;;;;9.00;4.20;;;;;;;11.83;75.80;101388.69;4995497;28;20263;-68
2021/06/06 02:14:25;;;;;;;7.47;4.50;;;;;;;11.79;76.65;101391.59;5012768;28;20175;-68
2021/06/06 02:16:55;;;;;;;7.97;4.90;;;;;;;11.79;77.05;101386.25;4995269;28;20207;-68
2021/06/06 02:19:24;;;;;;;6.93;4.07;;;;;;;11.88;77.36;101388.44;4995243;28;20176;-68
2021/06/06 02:21:52;;;;;;;5.13;4.27;;;;;;;12.11;77.45;101380.16;4995438;28;20183;-68
2021/06/06 02:24:17;;;;;;;10.43;4.20;;;;;;;11.76;77.81;101383.69;5012612;28;20308;-68
2021/06/06 02:26:47;;;;;;;4.90;3.93;;;;;;;11.63;77.98;101385.22;4978869;28;20657;-68
2021/06/06 02:29:30;;;;;;;6.40;4.30;;;;;;;11.76;79.20;101381.88;4995106;28;20177;-68
2021/06/06 02:32:04;;;;;;;11.03;4.50;;;;;;;11.76;78.09;101383.69;4995236;28;20180;-68
2021/06/06 02:34:45;;;;;;;5.70;4.40;;;;;;;11.80;77.93;101385.28;4995025;28;20184;-68
2021/06/06 02:37:17;;;;;;;6.37;4.00;;;;;;;11.81;77.53;101379.00;4995047;28;20204;-68
2021/06/06 02:39:47;;;;;;;5.17;4.50;;;;;;;11.57;77.35;101384.59;4995281;28;20220;-69
2021/06/06 02:42:21;;;;;;;8.27;5.10;;;;;;;11.50;78.42;101388.47;4995176;28;20231;-68
2021/06/06 02:44:51;;;;;;;6.70;4.20;;;;;;;11.55;78.75;101381.13;4995420;28;20196;-68
2021/06/06 02:47:34;;;;;;;5.00;4.47;;;;;;;11.62;77.82;101386.19;4994883;28;20276;-68
2021/06/06 02:50:04;;;;;;;7.63;4.73;;;;;;;11.59;77.69;101382.72;4997406;28;20169;-68
2021/06/06 02:52:44;;;;;;;8.03;4.50;;;;;;;11.69;77.82;101380.44;4998374;28;20259;-69
2021/06/06 02:55:22;;;;;;;6.23;4.80;;;;;;;12.03;78.12;101379.69;4998884;28;20247;-69
2021/06/06 02:57:52;;;;;;;8.87;5.03;;;;;;;12.26;78.14;101377.63;4998788;28;20172;-68
2021/06/06 03:00:26;;;;;;;6.30;4.73;;;;;;;12.11;77.13;101382.81;4998707;28;20537;-69
2021/06/06 03:02:55;;;;;;;8.63;5.57;;;;;;;11.95;75.96;101376.53;4998448;28;20211;-68
2021/06/06 03:05:23;;;;;;;7.07;5.40;;;;;;;11.87;77.92;101376.88;4998795;28;20251;-69
2021/06/06 03:07:52;;;;;;;8.93;5.53;;;;;;;11.68;78.13;101378.72;4998574;28;20554;-68
2021/06/06 03:10:20;;;;;;;10.30;6.23;;;;;;;11.41;79.45;101380.03;4998167;28;20185;-68
2021/06/06 03:12:46;;;;;;;7.33;6.00;;;;;;;11.44;79.65;101386.09;4998806;28;20264;-69
2021/06/06 03:15:13;;;;;;;7.27;6.20;;;;;;;11.47;79.82;101371.72;4998430;28;20204;-68
2021/06/06 03:17:42;;;;;;;8.23;5.63;;;;;;;11.52;79.05;101375.94;5016152;28;20329;-68
2021/06/06 03:20:12;;;;;;;9.07;5.87;;;;;;;11.50;79.36;101371.56;4982558;28;20533;-68
2021/06/06 03:22:39;;;;;;;9.50;6.37;;;;;;;11.49;79.52;101381.41;4998017;28;20181;-69
2021/06/06 03:25:33;;;;;;;9.97;6.00;;;;;;;11.54;79.08;101378.53;4998260;28;20283;-69
2021/06/06 03:27:58;;;;;;;10.63;5.20;;;;;;;11.85;80.05;101375.22;4998430;28;20284;-69
2021/06/06 03:30:33;;;;;;;6.90;5.43;;;;;;;11.77;78.82;101382.75;5015813;28;20260;-69
2021/06/06 03:33:00;;;;;;;9.93;5.27;;;;;;;11.96;78.06;101374.72;4998291;28;20162;-69
2021/06/06 03:35:26;;;;;;;8.70;5.80;;;;;;;11.86;77.91;101382.31;5015247;28;20180;-69
2021/06/06 03:37:51;;;;;;;8.97;5.60;;;;;;;11.95;77.61;101383.69;4981459;28;20625;-69
2021/06/06 03:40:18;;;;;;;7.07;6.07;;;;;;;11.91;78.17;101384.78;5015264;28;20637;-69
2021/06/06 03:42:44;;;;;;;6.40;5.50;;;;;;;11.98;78.38;101384.41;5015652;28;20176;-69
2021/06/06 03:45:11;;;;;;;9.83;5.50;;;;;;;12.03;77.43;101389.50;5015190;28;20196;-69
2021/06/06 03:47:37;;;;;;;8.07;5.10;;;;;;;12.15;76.20;101376.38;4997155;28;20216;-69
2021/06/06 03:50:05;;;;;;;6.17;4.83;;;;;;;12.25;75.09;101383.94;5015037;28;20177;-69
2021/06/06 03:52:34;;;;;;;6.20;4.70;;;;;;;12.26;74.70;101385.66;5014915;28;20715;-69
2021/06/06 03:55:01;;;;;;;8.67;4.60;;;;;;;12.24;75.28;101392.91;4997371;28;20522;-69
2021/06/06 03:57:26;;;;;;;4.70;3.97;;;;;;;12.21;75.53;101388.56;5014854;28;20251;-69
2021/06/06 03:59:52;;;;;;;6.87;4.87;;;;;;;12.19;75.69;101391.31;5014817;28;20177;-69
2021/06/06 04:02:17;;;;;;;6.77;4.43;;;;;;;12.28;75.58;101391.81;5014498;28;20184;-69
2021/06/06 04:04:42;;;;;;;7.30;5.07;;;;;;;12.49;74.32;101396.94;4997201;28;20617;-69
2021/06/06 04:07:08;;;;;;;9.47;4.50;;;;;;;12.58;74.08;101398.25;4997500;28;20699;-69
2021/06/06 04:09:33;;;;;;;4.77;4.07;;;;;;;12.64;73.33;101387.25;5014867;28;20208;-69
2021/06/06 04:11:59;;;;;;;5.83;4.17;;;;;;;12.72;73.25;101395.72;5014685;28;20173;-69
2021/06/06 04:14:24;;;;;;;6.60;4.53;;;;;;;12.76;73.15;101399.97;4996882;28;20223;-69
2021/06/06 04:16:49;;;;;;;5.63;4.13;;;;;;;12.76;73.45;101397.31;4997140;28;20200;-69
2021/06/06 04:19:15;;;;;;;5.70;4.30;;;;;;;12.90;72.87;101395.69;4996849;28;20534;-69
2021/06/06 04:21:40;;;;;;;7.53;4.33;;;;;;;12.94;72.42;101398.13;4997075;28;20188;-69
2021/06/06 04:24:05;;;;;;;6.17;4.17;;;;;;;13.02;72.92;101397.72;5014408;28;20550;-69
2021/06/06 04:26:31;;;;;;;4.83;4.30;;;;;;;12.99;72.81;101400.53;5014939;28;20196;-69
2021/06/06 04:28:56;;;;;;;7.73;4.23;;;;;;;13.04;72.39;101401.19;5014671;28;20626;-69
2021/06/06 04:31:21;;;;;;;8.23;4.63;;;;;;;13.24;72.40;101397.44;5014103;28;20319;-69
2021/06/06 04:33:47;;;;;;;7.47;4.70;;;;;;;13.32;74.37;101390.69;4996750;28;20264;-68
2021/06/06 04:36:13;;;;;;;6.73;4.83;;;;;;;13.68;74.48;101393.13;5014262;28;20626;-69
2021/06/06 04:38:38;;;;;;;7.80;4.50;;;;;;;13.76;73.50;101398.09;5013890;28;20177;-69
2021/06/06 04:41:07;;;;;;;6.87;4.27;;;;;;;13.77;71.19;101394.44;5014101;28;20189;-69
2021/06/06 04:43:33;;;;;;;6.83;4.10;;;;;;;13.74;70.84;101392.78;5013843;28;20696;-69
2021/06/06 04:45:58;;;;;;;6.17;4.70;;;;;;;13.73;71.42;101393.72;4996179;28;20261;-69
2021/06/06 04:48:30;;;;;;;4.80;4.07;;;;;;;13.85;72.26;101384.13;5014045;28;20209;-69
2021/06/06 04:50:57;;;;;;;4.60;3.67;;;;;;;14.05;71.42;101388.31;4996170;28;20266;-69
2021/06/06 04:53:23;;;;;;;8.33;4.50;;;;;;;14.10;69.60;101391.59;5012376;28;20648;-69
2021/06/06 04:55:51;;;;;;;7.30;4.50;;;;;;;14.06;70.07;101395.41;4996156;28;20201;-69
2021/06/06 04:58:19;;;;;;;5.13;3.90;;;;;;;14.13;70.31;101398.63;5013600;28;20177;-69
2021/06/06 05:00:45;;;;;;;5.60;4.07;;;;;;;14.15;70.57;101394.91;4996541;28;20169;-69
2021/06/06 05:03:11;;;;;;;5.33;3.73;;;;;;;14.36;70.19;101395.44;5013750;28;20176;-69
2021/06/06 05:05:37;;;;;;;5.27;4.27;;;;;;;14.52;70.81;101404.34;5013976;28;20291;-69
2021/06/06 05:08:03;;;;;;;9.87;4.50;;;;;;;14.78;71.16;101401.88;4979660;28;20215;-69
2021/06/06 05:10:32;;;;;;;7.50;4.03;;;;;;;14.88;71.52;101408.44;5013756;28;20186;-69
2021/06/06 05:12:57;;;;;;;8.27;4.70;;;;;;;15.21;70.21;101408.13;4995359;28;20251;-69
2021/06/06 05:15:23;;;;;;;8.43;5.00;;;;;;;15.48;69.60;101405.53;5013428;28;20204;-69
2021/06/06 05:17:49;;;;;;;5.90;4.10;;;;;;;15.73;68.46;101408.38;4995984;28;20630;-69
2021/06/06 05:20:17;;;;;;;7.37;3.93;;;;;;;15.75;68.49;101403.78;4995698;28;20279;-69
2021/06/06 05:22:42;;;;;;;7.33;4.37;;;;;;;15.81;68.81;101405.19;4995656;28;20179;-70
2021/06/06 05:25:08;;;;;;;5.47;4.33;;;;;;;15.88;68.43;101407.38;4995460;28;20668;-69
2021/06/06 05:27:34;;;;;;;5.73;3.90;;;;;;;16.12;67.27;101398.63;4995425;28;20287;-69
2021/06/06 05:30:00;;;;;;;7.20;4.73;;;;;;;16.13;66.89;101403.06;4995676;28;20717;-69
2021/06/06 05:32:25;;;;;;;9.43;4.90;;;;;;;16.13;66.03;101406.63;5013233;28;20189;-69
2021/06/06 05:34:51;;;;;;;5.80;4.47;;;;;;;16.47;65.39;101399.81;4995815;28;20188;-69
2021/06/06 05:37:16;;;;;;;4.67;4.17;;;;;;;16.73;64.06;101402.56;4995443;28;20561;-69
2021/06/06 05:39:42;;;;;;;5.37;4.70;;;;;;;16.63;64.45;101404.13;5013155;28;20190;-70
2021/06/06 05:42:09;;;;;;;9.27;4.93;;;;;;;16.61;64.03;101406.94;4995670;28;20223;-69
2021/06/06 05:44:34;;;;;;;6.87;5.33;;;;;;;16.66;64.15;101406.63;5012881;28;20243;-69
2021/06/06 05:47:00;;;;;;;6.00;4.90;;;;;;;16.77;63.42;101393.31;5012715;28;20212;-69
2021/06/06 05:49:25;;;;;;;6.17;5.03;;;;;;;16.92;63.38;101394.91;4995361;28;20209;-69
2021/06/06 05:51:50;;;;;;;7.80;5.07;;;;;;;17.24;63.00;101397.16;4995374;28;20177;-69
2021/06/06 05:54:16;;;;;;;8.20;4.93;;;;;;;17.27;62.73;101395.09;4995539;28;20200;-69
2021/06/06 05:56:43;;;;;;;8.70;5.10;;;;;;;17.24;62.82;101399.84;5013300;28;20208;-69
2021/06/06 05:59:09;;;;;;;6.77;4.70;;;;;;;17.43;62.10;101392.13;5012851;28;20173;-69
2021/06/06 06:01:34;;;;;;;8.47;4.60;;;;;;;17.38;62.62;101397.88;5012978;28;20629;-69
2021/06/06 06:03:59;;;;;;;7.67;5.00;;;;;;;17.77;60.84;101402.22;4995480;28;20620;-68
2021/06/06 06:06:25;;;;;;;6.93;4.73;;;;;;;17.83;60.89;101402.72;4995228;28;20272;-69
2021/06/06 06:08:50;;;;;;;6.33;5.20;;;;;;;17.81;61.70;101406.41;4995548;28;20581;-68
2021/06/06 06:11:18;;;;;;;6.33;4.50;;;;;;;17.87;62.02;101412.38;5012977;28;20180;-68
2021/06/06 06:13:44;;;;;;;7.17;4.53;;;;;;;18.19;61.10;101399.97;4995566;28;20553;-68
2021/06/06 06:16:11;;;;;;;7.00;4.60;;;;;;;18.18;60.72;101403.66;5012963;28;20204;-69
2021/06/06 06:18:37;;;;;;;6.23;4.40;;;;;;;18.10;61.32;101409.66;4995276;28;20181;-70
2021/06/06 06:21:07;;;;;;;5.67;4.40;;;;;;;18.09;61.50;101404.34;4995229;28;20184;-69
2021/06/06 06:23:33;;;;;;;9.30;5.10;;;;;;;18.02;61.69;101414.78;4995426;28;20278;-69
2021/06/06 06:25:58;;;;;;;11.53;4.73;;;;;;;18.07;61.09;101403.63;4999405;28;20228;-69
2021/06/06 06:28:24;;;;;;;7.03;4.57;;;;;;;18.01;60.78;101404.94;5016736;28;20681;-69
2021/06/06 06:30:49;;;;;;;5.43;4.50;;;;;;;18.26;60.03;101406.66;5016892;28;20207;-69
2021/06/06 06:33:15;;;;;;;7.07;5.37;;;;;;;18.37;59.69;101408.53;5016544;28;20553;-69
2021/06/06 06:35:40;;;;;;;9.37;4.90;;;;;;;18.50;58.68;101409.31;5015889;28;20284;-70
2021/06/06 06:38:06;;;;;;;7.07;4.97;;;;;;;18.51;58.07;101412.88;4999192;28;20259;-67
2021/06/06 06:40:32;;;;;;;6.53;4.80;;;;;;;18.49;58.37;101412.13;4999522;28;20181;-70
2021/06/06 06:42:57;;;;;;;7.70;5.53;;;;;;;18.52;59.12;101411.91;5016796;28;20251;-69
2021/06/06 06:45:26;;;;;;;5.37;4.70;;;;;;;18.71;58.26;101423.06;4999071;28;20204;-68
2021/06/06 06:48:00;;;;;;;6.37;4.83;;;;;;;18.62;59.10;101419.22;5016537;28;20161;-68
2021/06/06 06:50:26;;;;;;;5.87;5.00;;;;;;;18.84;58.13;101418.41;4999372;28;20180;-68
2021/06/06 06:52:51;;;;;;;7.30;5.23;;;;;;;18.87;58.77;101422.72;5016584;28;20514;-68
2021/06/06 06:55:18;;;;;;;8.37;4.90;;;;;;;19.05;58.43;101424.84;4982284;28;20180;-69
2021/06/06 06:57:43;;;;;;;6.27;4.30;;;;;;;19.30;58.40;101426.44;5016473;28;20633;-69
2021/06/06 07:00:19;;;;;;;7.40;4.37;;;;;;;19.44;57.43;101429.91;5016329;28;20177;-69
2021/06/06 07:02:44;;;;;;;6.13;4.57;;;;;;;19.67;57.09;101427.06;4998798;28;20629;-68
2021/06/06 07:05:10;;;;;;;6.97;4.50;;;;;;;20.19;55.41;101425.47;5016058;28;20216;-68
2021/06/06 07:07:35;;;;;;;6.07;4.73;;;;;;;20.21;54.59;101426.19;5016014;28;20624;-69
2021/06/06 07:10:00;;;;;;;5.57;4.40;;;;;;;20.37;54.33;101417.63;5016585;28;20177;-68
2021/06/06 07:12:27;;;;;;;9.13;4.57;;;;;;;20.71;53.54;101426.47;5016368;28;20616;-69
2021/06/06 07:14:52;;;;;;;7.07;4.47;;;;;;;20.59;53.48;101422.97;4998447;28;20573;-68
2021/06/06 07:17:18;;;;;;;6.07;4.57;;;;;;;20.70;52.08;101424.75;4998288;28;20220;-69
2021/06/06 07:19:43;;;;;;;9.87;4.27;;;;;;;20.66;52.68;101425.16;5016661;28;20191;-69
2021/06/06 07:22:08;;;;;;;6.30;4.40;;;;;;;20.90;51.57;101429.34;5016147;28;20180;-68
2021/06/06 07:24:34;;;;;;;7.63;4.90;;;;;;;21.07;51.58;101426.97;4997948;28;20216;-69
2021/06/06 07:27:01;;;;;;;8.80;4.27;;;;;;;20.90;52.17;101429.34;5015812;28;20347;-69
2021/06/06 07:29:28;;;;;;;9.73;4.50;;;;;;;21.17;50.72;101427.88;4998342;28;20189;-69
2021/06/06 07:31:55;;;;;;;5.80;4.30;;;;;;;21.12;51.62;101430.16;5015742;28;20649;-69
2021/06/06 07:34:26;;;;;;;5.77;4.27;;;;;;;21.16;51.70;101427.03;4998154;28;20235;-70
2021/06/06 07:36:53;;;;;;;4.67;3.87;;;;;;;21.31;50.45;101424.88;5014697;28;20200;-70
2021/06/06 07:39:18;;;;;;;6.67;4.07;;;;;;;21.65;49.97;101430.00;5015525;28;20568;-68
2021/06/06 07:41:43;;;;;;;7.40;4.47;;;;;;;21.17;50.57;101425.16;5015407;28;20197;-68
2021/06/06 07:44:09;;;;;;;7.30;4.27;;;;;;;21.17;51.18;101428.75;4997696;28;20201;-68
2021/06/06 07:46:35;;;;;;;7.83;4.30;;;;;;;21.18;52.34;101427.75;5024116;23;20233;-72
2021/06/06 07:49:00;;;;;;;7.10;4.13;;;;;;;20.84;52.09;101435.28;4998054;28;20200;-70
2021/06/06 07:51:26;;;;;;;7.33;4.60;;;;;;;21.32;50.83;101436.59;5015486;28;20663;-72
2021/06/06 07:53:52;;;;;;;6.67;4.30;;;;;;;21.85;49.50;101438.03;4998035;28;20173;-71
2021/06/06 07:56:17;;;;;;;4.90;4.40;;;;;;;22.09;49.70;101432.25;4981599;28;20247;-72
2021/06/06 07:58:42;;;;;;;8.57;4.37;;;;;;;22.15;48.73;101434.41;4998463;28;20177;-72
2021/06/06 08:01:08;;;;;;;6.07;4.50;;;;;;;22.17;49.29;101438.84;4998815;28;20227;-73
2021/06/06 08:03:34;;;;;;;5.53;3.77;;;;;;;21.86;48.84;101436.19;4983292;28;20216;-72
2021/06/06 08:06:01;;;;;;;7.67;4.10;;;;;;;22.04;48.83;101440.00;5003199;28;20181;-71
2021/06/06 08:08:27;;;;;;;6.63;3.90;;;;;;;21.27;51.04;101437.00;5008568;28;20288;-72
2021/06/06 08:10:56;;;;;;;4.90;3.73;;;;;;;21.35;51.06;101437.16;4990377;28;20268;-72
2021/06/06 08:13:22;;;;;;;5.37;4.17;;;;;;;21.38;51.15;101431.47;4997965;28;20176;-72
2021/06/06 08:15:48;;;;;;;9.20;4.30;;;;;;;21.49;51.22;101433.22;5014884;28;20283;-72
2021/06/06 08:18:17;;;;;;;6.53;3.97;;;;;;;21.14;51.79;101434.44;4981010;28;20191;-72
2021/06/06 08:20:49;;;;;;;5.57;4.17;;;;;;;21.23;52.21;101438.25;4981023;28;20339;-73
2021/06/06 08:23:15;;;;;;;6.77;4.10;;;;;;;20.64;53.89;101436.13;5014817;28;20173;-72
2021/06/06 08:25:41;;;;;;;6.23;4.40;;;;;;;20.85;53.26;101436.16;4981047;28;20196;-72
2021/06/06 08:28:08;;;;;;;4.33;3.90;;;;;;;21.00;51.68;101426.66;4997140;28;20220;-71
2021/06/06 08:30:42;;;;;;;6.33;4.00;;;;;;;21.37;50.55;101434.31;4997608;28;20184;-72
2021/06/06 08:33:08;;;;;;;5.87;4.17;;;;;;;21.82;49.58;101434.75;4997003;28;20232;-72
2021/06/06 08:35:34;;;;;;;8.03;3.90;;;;;;;21.50;50.23;101438.50;4997021;28;20181;-73
2021/06/06 08:38:00;;;;;;;8.07;3.97;;;;;;;22.06;49.31;101429.84;4996560;28;20197;-72
2021/06/06 08:40:32;;;;;;;8.10;4.33;;;;;;;21.89;50.55;101437.75;4997044;28;20676;-72
2021/06/06 08:42:58;;;;;;;6.47;4.17;;;;;;;21.91;50.51;101433.03;4996636;28;20180;-72
2021/06/06 08:45:30;;;;;;;6.73;4.23;;;;;;;22.12;50.01;101445.56;4980327;28;20308;-72
2021/06/06 08:47:57;;;;;;;6.53;4.03;;;;;;;22.90;48.40;101440.16;4996548;28;20291;-72
2021/06/06 08:50:26;;;;;;;6.00;3.50;;;;;;;22.62;49.59;101434.56;4996995;28;20204;-72
2021/06/06 08:53:14;;;;;;;9.77;3.93;;;;;;;23.41;46.27;101439.69;5014132;28;20523;-72
2021/06/06 08:55:56;;;;;;;6.87;3.63;;;;;;;23.13;47.21;101449.69;5014158;28;20645;-71
2021/06/06 08:58:41;;;;;;;8.40;4.10;;;;;;;22.71;48.26;101441.88;4980352;28;20296;-72
2021/06/06 09:01:11;;;;;;;9.47;4.40;;;;;;;22.54;49.63;101439.88;4996529;28;20648;-72
2021/06/06 09:03:37;;;;;;;4.20;3.70;;;;;;;22.77;47.14;101435.00;5014440;28;20193;-72
2021/06/06 09:06:06;;;;;;;6.50;4.00;;;;;;;22.87;47.82;101437.72;5013827;28;20529;-72
2021/06/06 09:08:34;;;;;;;6.53;4.30;;;;;;;22.69;48.04;101443.88;4996309;28;20196;-72
2021/06/06 09:11:03;;;;;;;5.23;3.70;;;;;;;23.74;44.69;101445.59;4996346;28;20640;-73
2021/06/06 09:13:31;;;;;;;6.80;3.93;;;;;;;23.51;45.83;101453.28;4980117;28;20169;-73
2021/06/06 09:16:02;;;;;;;7.50;4.07;;;;;;;23.01;47.71;101446.25;5013901;28;20169;-72
2021/06/06 09:18:28;;;;;;;5.17;3.60;;;;;;;23.85;45.00;101449.00;4996751;28;20173;-73
2021/06/06 09:21:08;;;;;;;10.20;3.77;;;;;;;23.29;46.44;101449.06;4996792;28;20240;-72
2021/06/06 09:23:33;;;;;;;5.43;4.47;;;;;;;24.13;43.24;101446.22;4996363;28;20676;-72
2021/06/06 09:26:04;;;;;;;7.23;5.10;;;;;;;24.31;42.38;101447.13;4996116;28;20205;-72
2021/06/06 09:28:31;;;;;;;10.90;3.83;;;;;;;24.55;41.64;101441.06;4996382;28;20248;-71
2021/06/06 09:31:01;;;;;;;5.10;3.90;;;;;;;24.47;42.05;101440.97;5013377;28;20258;-71
2021/06/06 09:33:33;;;;;;;5.47;3.87;;;;;;;24.38;41.31;101444.63;4979600;28;20224;-71
2021/06/06 09:36:02;;;;;;;4.70;3.33;;;;;;;23.84;43.36;101451.88;4979537;28;20227;-72
2021/06/06 09:38:30;;;;;;;7.80;3.73;;;;;;;23.60;42.23;101449.69;4995904;28;20172;-72
2021/06/06 09:41:07;;;;;;;5.97;3.53;;;;;;;23.87;41.21;101446.97;5013337;28;20204;-72
2021/06/06 09:43:33;;;;;;;4.07;3.17;;;;;;;24.10;40.46;101444.66;4995788;28;20192;-72
2021/06/06 09:46:15;;;;;;;4.67;3.33;;;;;;;24.53;39.56;101446.66;4995711;28;20181;-71
2021/06/06 09:48:43;;;;;;;3.83;3.43;;;;;;;24.46;38.81;101447.44;5013202;28;20237;-72
2021/06/06 09:51:13;;;;;;;4.33;2.73;;;;;;;24.83;38.19;101441.78;4995564;28;20187;-71
2021/06/06 09:53:39;;;;;;;4.10;3.20;;;;;;;25.14;36.86;101445.78;4995931;28;20165;-72
2021/06/06 09:56:26;;;;;;;5.70;3.53;;;;;;;24.91;36.62;101442.72;4995921;28;20232;-71
2021/06/06 09:58:53;;;;;;;3.27;2.67;;;;;;;25.05;36.69;101443.19;4995391;28;20204;-71
2021/06/06 10:01:34;;;;;;;8.10;2.90;;;;;;;24.91;36.46;101439.13;4996146;28;20173;-71
2021/06/06 10:04:21;;;;;;;4.87;2.73;;;;;;;25.06;35.72;101444.88;5013394;28;20689;-70
2021/06/06 10:06:47;;;;;;;4.00;2.90;;;;;;;25.27;36.13;101444.50;4995065;28;20299;-71
2021/06/06 10:09:24;;;;;;;3.70;2.60;;;;;;;24.98;35.85;101433.88;5013286;28;20664;-71
2021/06/06 10:11:49;;;;;;;3.67;3.00;;;;;;;24.63;36.14;101432.94;4995776;28;20252;-71
2021/06/06 10:14:17;;;;;;;4.67;3.30;;;;;;;24.90;35.84;101438.28;5012923;28;20615;-71
2021/06/06 10:16:45;;;;;;;5.30;3.00;;;;;;;25.28;34.78;101438.03;4995184;28;20201;-70
2021/06/06 10:19:14;;;;;;;4.73;3.10;;;;;;;25.16;33.55;101440.16;4995683;28;20645;-71
2021/06/06 10:21:40;;;;;;;3.00;2.47;;;;;;;25.26;33.39;101443.63;4995502;28;20184;-71
2021/06/06 10:24:43;;;;;;;3.70;2.80;;;;;;;25.27;33.53;101444.50;4995417;28;20200;-73
2021/06/06 10:27:42;;;;;;;3.67;2.53;;;;;;;25.57;32.80;101443.97;4965676;28;20212;-71
2021/06/06 10:30:34;;;;;;;4.17;2.47;;;;;;;25.06;33.26;101451.22;4984319;28;20204;-71
2021/06/06 10:33:21;;;;;;;2.87;2.20;;;;;;;25.38;32.40;101452.44;5005014;28;20601;-71
2021/06/06 10:35:48;;;;;;;5.07;2.53;;;;;;;25.13;32.22;101441.34;4995718;28;20203;-70
2021/06/06 10:38:14;;;;;;;2.87;2.40;;;;;;;25.67;31.67;101452.09;5015434;28;20240;-72
2021/06/06 10:40:48;;;;;;;2.83;2.37;;;;;;;25.38;31.70;101445.09;4995641;28;20177;-71
2021/06/06 10:43:32;;;;;;;3.50;2.40;;;;;;;25.61;32.00;101449.97;4995685;28;20165;-71
2021/06/06 10:46:10;;;;;;;5.30;2.57;;;;;;;25.34;31.54;101438.25;4995347;28;20189;-71
2021/06/06 10:48:41;;;;;;;3.17;2.80;;;;;;;25.89;30.78;101434.22;4995358;28;20324;-69
2021/06/06 10:51:16;;;;;;;4.67;2.43;;;;;;;25.82;29.73;101439.50;4995579;28;20227;-70
2021/06/06 10:53:53;;;;;;;3.30;2.50;;;;;;;26.00;30.18;101447.56;4995435;28;20160;-72
2021/06/06 10:56:31;;;;;;;5.13;2.50;;;;;;;26.15;29.79;101452.25;4995397;28;20279;-72
2021/06/06 10:58:58;;;;;;;5.57;2.87;;;;;;;26.13;30.56;101445.22;5013786;28;20173;-72
2021/06/06 11:01:30;;;;;;;2.93;2.37;;;;;;;27.34;29.20;101455.38;4995424;28;20254;-72
2021/06/06 11:04:17;;;;;;;5.27;2.07;;;;;;;28.57;27.67;101441.91;4995746;28;20600;-72
2021/06/06 11:06:47;;;;;;;3.93;2.17;;;;;;;29.36;25.96;101445.09;4979467;28;20197;-71
2021/06/06 11:09:33;;;;;;;3.63;2.23;;;;;;;29.18;26.04;101449.09;4996918;28;20165;-74
2021/06/06 11:12:03;;;;;;;3.08;2.20;;;;;;;29.37;25.96;101447.69;4997868;28;20185;-71
2021/06/06 11:14:38;;;;;;;3.15;2.00;;;;;;;29.24;24.92;101445.59;4999063;28;20181;-72
2021/06/06 11:17:14;;;;;;;3.30;1.83;;;;;;;29.57;24.55;101437.00;5016491;28;20204;-71
2021/06/06 11:19:40;;;;;;;2.67;1.60;;;;;;;29.66;22.90;101446.00;4999257;28;20165;-74
2021/06/06 11:22:05;;;;;;;2.20;1.60;;;;;;;29.97;22.12;101445.75;4999046;28;20209;-71
2021/06/06 11:24:45;;;;;;;2.50;1.70;;;;;;;29.37;22.46;101449.59;5016988;28;20703;-71
2021/06/06 11:27:10;;;;;;;1.40;1.23;;;;;;;27.93;23.45;101446.78;5000062;28;20203;-72
2021/06/06 11:29:55;;;;;;;3.22;1.55;;;;;;;29.44;22.03;101451.41;5020886;28;20180;-72
2021/06/06 11:32:41;;;;;;;2.47;1.50;;;;;;;29.25;22.44;101440.94;5029745;28;20157;-71
2021/06/06 11:35:23;;;;;;;2.28;1.75;;;;;;;29.95;21.19;101443.19;5006751;28;20164;-71